Time;durP1;ratioP1;P1;durP2;ratioP2;P2;SDS_P1;SDS_P2;PMS_P1;PMS_P2;Temp;Humidity;BMP_temperature;BMP_pressure;BME280_temperature;BME280_humidity;BME280_pressure;Samples;Min_cycle;Max_cycle;Signal;HPM_P1;HPM_P2
2023/09/04 00:01:05;;;;;;;0.20;0.20;;;;;;;19.28;100.00;100952.66;5071033;28;20032;-61
2023/09/04 00:03:30;;;;;;;0.20;0.20;;;;;;;19.25;100.00;100949.25;5086816;28;20391;-61
2023/09/04 00:05:56;;;;;;;0.20;0.20;;;;;;;19.23;100.00;100956.56;5091247;28;20468;-61
2023/09/04 00:08:21;;;;;;;0.20;0.20;;;;;;;19.19;100.00;100950.44;5078272;28;20494;-61
2023/09/04 00:10:47;;;;;;;0.10;0.10;;;;;;;19.22;100.00;100953.00;5080112;28;20368;-61
2023/09/04 00:13:13;;;;;;;0.20;0.20;;;;;;;19.25;100.00;100951.94;5085413;28;20020;-61
2023/09/04 00:15:39;;;;;;;0.10;0.10;;;;;;;19.25;100.00;100951.94;5070548;28;20033;-61
2023/09/04 00:18:06;;;;;;;0.20;0.20;;;;;;;19.21;100.00;100953.06;5070569;28;20043;-61
2023/09/04 00:20:31;;;;;;;0.15;0.15;;;;;;;19.17;100.00;100959.59;5070348;28;20024;-62
2023/09/04 00:22:56;;;;;;;0.20;0.20;;;;;;;19.15;100.00;100959.66;5075091;28;20029;-61
2023/09/04 00:25:22;;;;;;;0.17;0.17;;;;;;;19.09;100.00;100949.19;5069324;28;20161;-62
2023/09/04 00:27:48;;;;;;;0.20;0.20;;;;;;;19.08;100.00;100949.25;5074974;28;20043;-61
2023/09/04 00:30:14;;;;;;;0.20;0.20;;;;;;;19.07;100.00;100955.63;5088959;28;20365;-61
2023/09/04 00:32:40;;;;;;;0.20;0.20;;;;;;;19.03;100.00;100943.25;5088679;28;20111;-61
2023/09/04 00:35:06;;;;;;;0.20;0.20;;;;;;;19.04;100.00;100953.09;5088449;28;20598;-61
2023/09/04 00:37:32;;;;;;;0.20;0.20;;;;;;;19.03;100.00;100956.72;5087819;28;20028;-61
2023/09/04 00:39:57;;;;;;;0.20;0.20;;;;;;;18.98;100.00;100954.28;5088217;28;20445;-61
2023/09/04 00:42:23;;;;;;;0.20;0.20;;;;;;;18.97;100.00;100963.31;5087537;28;20027;-62
2023/09/04 00:44:50;;;;;;;0.10;0.10;;;;;;;18.94;100.00;100952.72;5090325;28;20417;-61
2023/09/04 00:47:17;;;;;;;0.20;0.20;;;;;;;18.90;100.00;100950.22;5089837;28;20032;-61
2023/09/04 00:49:45;;;;;;;0.10;0.10;;;;;;;18.89;100.00;100954.78;5086614;28;20058;-61
2023/09/04 00:52:11;;;;;;;0.10;0.10;;;;;;;18.83;100.00;100954.22;5089174;28;20368;-61
2023/09/04 00:54:37;;;;;;;0.20;0.20;;;;;;;18.78;100.00;100950.88;5090144;28;20027;-61
2023/09/04 00:57:05;;;;;;;0.20;0.20;;;;;;;18.76;100.00;100955.47;5089598;28;20081;-61
2023/09/04 00:59:30;;;;;;;0.20;0.20;;;;;;;18.69;100.00;100951.34;5089107;28;20032;-61
2023/09/04 01:01:59;;;;;;;0.10;0.10;;;;;;;18.68;100.00;100946.91;5089149;28;20034;-60
2023/09/04 01:04:24;;;;;;;0.20;0.20;;;;;;;18.63;100.00;100948.97;5088140;28;20112;-61
2023/09/04 01:06:50;;;;;;;0.20;0.20;;;;;;;18.57;100.00;100941.16;5089784;28;20114;-61
2023/09/04 01:09:17;;;;;;;0.17;0.17;;;;;;;18.54;100.00;100952.09;5089466;28;20052;-61
2023/09/04 01:12:14;;;;;;;0.20;0.20;;;;;;;18.46;100.00;100944.41;5088395;28;20020;-61
2023/09/04 01:14:45;;;;;;;0.10;0.10;;;;;;;18.41;100.00;100946.47;5089533;28;20127;-62
2023/09/04 01:17:12;;;;;;;0.20;0.20;;;;;;;18.40;100.00;100943.84;5089377;28;20117;-61
2023/09/04 01:19:39;;;;;;;0.20;0.20;;;;;;;18.36;100.00;100943.97;5089296;28;20434;-61
2023/09/04 01:22:07;;;;;;;0.20;0.20;;;;;;;18.35;100.00;100952.13;5088735;28;20380;-61
2023/09/04 01:24:35;;;;;;;0.20;0.20;;;;;;;18.34;100.00;100951.25;5087909;28;20428;-61
2023/09/04 01:27:12;;;;;;;0.20;0.20;;;;;;;18.27;100.00;100946.22;5089575;28;20036;-61
2023/09/04 01:30:07;;;;;;;0.20;0.20;;;;;;;18.20;100.00;100948.34;5089363;28;20452;-61
2023/09/04 01:32:38;;;;;;;0.20;0.20;;;;;;;18.20;100.00;100948.34;5086583;28;20024;-60
2023/09/04 01:35:10;;;;;;;0.20;0.20;;;;;;;18.12;100.00;100939.78;5085367;28;20027;-61
2023/09/04 01:37:36;;;;;;;0.20;0.20;;;;;;;18.11;100.00;100943.44;5088893;28;20024;-61
2023/09/04 01:40:03;;;;;;;0.20;0.20;;;;;;;18.07;100.00;100939.13;5087999;28;20024;-61
2023/09/04 01:42:28;;;;;;;0.20;0.20;;;;;;;18.04;100.00;100936.59;5089063;28;20055;-61
2023/09/04 01:44:54;;;;;;;0.20;0.20;;;;;;;18.03;100.00;100940.25;5088679;28;20201;-61
2023/09/04 01:47:19;;;;;;;0.20;0.20;;;;;;;18.02;100.00;100941.16;5089256;28;20028;-61
2023/09/04 01:49:45;;;;;;;0.20;0.20;;;;;;;17.99;100.00;100925.16;5087472;28;20038;-61
2023/09/04 01:52:11;;;;;;;0.15;0.15;;;;;;;18.00;100.00;100923.34;5089077;28;20100;-61
2023/09/04 01:54:36;;;;;;;0.20;0.20;;;;;;;17.99;100.00;100927.00;5088410;28;20484;-61
2023/09/04 01:57:02;;;;;;;0.20;0.20;;;;;;;17.97;100.00;100924.38;5086367;28;20035;-60
2023/09/04 01:59:27;;;;;;;0.20;0.20;;;;;;;17.97;100.00;100924.38;5087637;28;20081;-61
2023/09/04 02:01:53;;;;;;;0.20;0.20;;;;;;;17.94;100.00;100923.66;5087911;28;20073;-62
2023/09/04 02:04:18;;;;;;;0.20;0.20;;;;;;;17.88;100.00;100924.81;5088457;28;20031;-62
2023/09/04 02:06:43;;;;;;;0.20;0.20;;;;;;;17.84;100.00;100933.97;5088432;28;20132;-61
2023/09/04 02:09:09;;;;;;;0.20;0.20;;;;;;;17.80;100.00;100918.94;5087289;28;20574;-61
2023/09/04 02:11:34;;;;;;;0.20;0.20;;;;;;;17.81;100.00;100922.47;5088675;28;20032;-61
2023/09/04 02:14:00;;;;;;;0.20;0.20;;;;;;;17.81;100.00;100923.38;5087288;28;20024;-61
2023/09/04 02:16:25;;;;;;;0.20;0.20;;;;;;;17.84;100.00;100920.53;5087759;28;20024;-61
2023/09/04 02:18:51;;;;;;;0.20;0.20;;;;;;;17.84;100.00;100922.38;5088108;28;20107;-61
2023/09/04 02:21:16;;;;;;;0.20;0.20;;;;;;;17.84;100.00;100917.81;5085802;28;20020;-61
2023/09/04 02:23:42;;;;;;;0.20;0.20;;;;;;;17.82;100.00;100917.06;5085508;28;20505;-61
2023/09/04 02:26:07;;;;;;;0.20;0.20;;;;;;;17.79;100.00;100914.47;5086545;28;20059;-60
2023/09/04 02:28:33;;;;;;;0.20;0.20;;;;;;;17.76;100.00;100909.25;5079902;28;20019;-62
2023/09/04 02:31:06;;;;;;;0.30;0.30;;;;;;;17.74;100.00;100916.50;5086374;28;20077;-62
2023/09/04 02:33:32;;;;;;;0.20;0.20;;;;;;;17.67;100.00;100901.63;5084769;28;20034;-62
2023/09/04 02:35:58;;;;;;;0.25;0.25;;;;;;;17.69;100.00;100907.78;5087469;28;20039;-61
2023/09/04 02:38:23;;;;;;;0.20;0.20;;;;;;;17.64;100.00;100915.25;5087917;28;20471;-61
2023/09/04 02:40:49;;;;;;;0.20;0.20;;;;;;;17.64;100.00;100903.59;5087134;28;20032;-62
2023/09/04 02:43:14;;;;;;;0.20;0.20;;;;;;;17.65;100.00;100906.22;5087087;28;20020;-61
2023/09/04 02:45:40;;;;;;;0.30;0.30;;;;;;;17.66;100.00;100902.56;5071862;28;20024;-61
2023/09/04 02:48:06;;;;;;;0.20;0.20;;;;;;;17.64;100.00;100899.09;5088347;28;20035;-61
2023/09/04 02:50:31;;;;;;;0.10;0.10;;;;;;;17.62;100.00;100898.28;5087637;28;20031;-61
2023/09/04 02:52:57;;;;;;;0.20;0.20;;;;;;;17.58;100.00;100893.97;5083958;28;20514;-61
2023/09/04 02:55:22;;;;;;;0.20;0.20;;;;;;;17.60;100.00;100902.84;5085685;28;20458;-61
2023/09/04 02:57:47;;;;;;;0.20;0.20;;;;;;;17.61;100.00;100899.22;5086659;28;20027;-61
2023/09/04 03:00:13;;;;;;;0.20;0.20;;;;;;;17.55;100.00;100893.25;5085363;28;20392;-61
2023/09/04 03:02:38;;;;;;;0.20;0.20;;;;;;;17.58;100.00;100899.38;5086375;28;20494;-61
2023/09/04 03:05:04;;;;;;;0.13;0.13;;;;;;;17.53;100.00;100890.63;5086301;28;20023;-61
2023/09/04 03:07:30;;;;;;;0.20;0.20;;;;;;;17.55;100.00;100890.56;5084745;28;20485;-61
2023/09/04 03:09:57;;;;;;;0.20;0.20;;;;;;;17.50;100.00;100898.84;5085412;28;20498;-61
2023/09/04 03:12:27;;;;;;;0.20;0.20;;;;;;;17.48;100.00;100900.72;5086027;28;20032;-61
2023/09/04 03:15:01;;;;;;;0.20;0.20;;;;;;;17.50;100.00;100898.84;5086156;28;20063;-61
2023/09/04 03:17:28;;;;;;;0.22;0.22;;;;;;;17.50;100.00;100890.78;5067645;28;20400;-61
2023/09/04 03:19:55;;;;;;;0.20;0.20;;;;;;;17.48;100.00;100881.91;5065648;28;20556;-61
2023/09/04 03:22:21;;;;;;;0.20;0.20;;;;;;;17.45;100.00;100882.06;5083351;28;20032;-61
2023/09/04 03:24:46;;;;;;;0.20;0.20;;;;;;;17.43;100.00;100889.28;5085616;28;20024;-61
2023/09/04 03:27:12;;;;;;;0.20;0.20;;;;;;;17.44;100.00;100891.03;5084340;28;20024;-61
2023/09/04 03:29:37;;;;;;;0.20;0.20;;;;;;;17.41;100.00;100893.88;5084229;28;20020;-61
2023/09/04 03:32:03;;;;;;;0.20;0.20;;;;;;;17.41;100.00;100895.69;5086731;28;20103;-61
2023/09/04 03:34:29;;;;;;;0.20;0.20;;;;;;;17.39;100.00;100897.56;5087217;28;20027;-61
2023/09/04 03:36:55;;;;;;;0.20;0.20;;;;;;;17.37;100.00;100884.19;5087122;28;20020;-61
2023/09/04 03:39:21;;;;;;;0.20;0.20;;;;;;;17.40;100.00;100889.44;5086418;28;20548;-61
2023/09/04 03:41:47;;;;;;;0.20;0.20;;;;;;;17.42;100.00;100884.84;5086835;28;20111;-61
2023/09/04 03:44:12;;;;;;;0.20;0.20;;;;;;;17.42;100.00;100887.56;5087150;28;20078;-61
2023/09/04 03:46:38;;;;;;;0.20;0.20;;;;;;;17.44;100.00;100895.53;5086927;28;20028;-61
2023/09/04 03:49:04;;;;;;;0.20;0.20;;;;;;;17.39;100.00;100898.47;5086452;28;20110;-61
2023/09/04 03:51:29;;;;;;;0.20;0.20;;;;;;;17.33;100.00;100901.41;5086837;28;20028;-61
2023/09/04 03:53:55;;;;;;;0.20;0.20;;;;;;;17.28;100.00;100892.69;5087076;28;20024;-61
2023/09/04 03:56:20;;;;;;;0.30;0.30;;;;;;;17.30;100.00;100890.78;5085670;28;20032;-61
2023/09/04 03:58:45;;;;;;;0.20;0.20;;;;;;;17.33;100.00;100887.13;5087045;28;20078;-61
2023/09/04 04:01:11;;;;;;;0.20;0.20;;;;;;;17.33;100.00;100901.41;5087068;28;20028;-61
2023/09/04 04:03:36;;;;;;;0.20;0.20;;;;;;;17.37;100.00;100897.66;5085872;28;20468;-61
2023/09/04 04:06:12;;;;;;;0.30;0.30;;;;;;;17.36;100.00;100900.41;5087060;28;20036;-61
2023/09/04 04:08:37;;;;;;;0.20;0.20;;;;;;;17.37;100.00;100894.97;5085737;28;20047;-61
2023/09/04 04:11:04;;;;;;;0.20;0.20;;;;;;;17.39;100.00;100898.47;5084883;28;20023;-61
2023/09/04 04:13:29;;;;;;;0.20;0.20;;;;;;;17.42;100.00;100887.56;5086648;28;20032;-61
2023/09/04 04:15:59;;;;;;;0.30;0.30;;;;;;;17.41;100.00;100884.94;5086035;28;20028;-61
2023/09/04 04:18:26;;;;;;;0.20;0.20;;;;;;;17.39;100.00;100892.19;5086847;28;20480;-61
2023/09/04 04:20:52;;;;;;;0.20;0.20;;;;;;;17.34;100.00;100895.09;5087040;28;20035;-61
2023/09/04 04:23:17;;;;;;;0.20;0.20;;;;;;;17.31;100.00;100889.00;5088944;28;20078;-61
2023/09/04 04:25:43;;;;;;;0.20;0.20;;;;;;;17.27;100.00;100893.63;5087825;28;20430;-61
2023/09/04 04:28:08;;;;;;;0.20;0.20;;;;;;;17.29;100.00;100885.50;5089710;28;20028;-61
2023/09/04 04:30:35;;;;;;;0.20;0.20;;;;;;;17.29;100.00;100883.69;5078992;28;20094;-61
2023/09/04 04:33:00;;;;;;;0.30;0.30;;;;;;;17.28;100.00;100883.75;5083906;28;20031;-61
2023/09/04 04:35:26;;;;;;;0.20;0.20;;;;;;;17.28;100.00;100883.75;5089448;28;20028;-61
2023/09/04 04:37:51;;;;;;;0.20;0.20;;;;;;;17.26;100.00;100870.38;5090360;28;20027;-61
2023/09/04 04:40:21;;;;;;;0.20;0.20;;;;;;;17.27;100.00;100872.13;5088934;28;20024;-61
2023/09/04 04:42:47;;;;;;;0.20;0.20;;;;;;;17.26;100.00;100859.63;5090078;28;20031;-61
2023/09/04 04:45:12;;;;;;;0.20;0.20;;;;;;;17.30;100.00;100847.78;5088918;28;20472;-61
2023/09/04 04:47:38;;;;;;;0.20;0.20;;;;;;;17.33;100.00;100861.06;5089370;28;20038;-61
2023/09/04 04:50:04;;;;;;;0.22;0.22;;;;;;;17.36;100.00;100857.38;5090252;28;20016;-61
2023/09/04 04:52:29;;;;;;;0.30;0.30;;;;;;;17.34;100.00;100857.47;5084766;28;20103;-61
2023/09/04 04:54:55;;;;;;;0.30;0.30;;;;;;;17.36;100.00;100855.56;5082966;28;20115;-61
2023/09/04 04:57:20;;;;;;;0.25;0.25;;;;;;;17.36;100.00;100849.31;5088608;28;20050;-61
2023/09/04 04:59:45;;;;;;;0.30;0.30;;;;;;;17.39;100.00;100855.41;5089563;28;20024;-61
2023/09/04 05:02:12;;;;;;;0.30;0.30;;;;;;;17.40;100.00;100850.88;5088436;28;20050;-61
2023/09/04 05:04:44;;;;;;;0.20;0.20;;;;;;;17.44;100.00;100853.38;5084874;28;20122;-61
2023/09/04 05:07:09;;;;;;;0.20;0.20;;;;;;;17.47;100.00;100852.38;5066837;28;20052;-61
2023/09/04 05:09:35;;;;;;;0.20;0.20;;;;;;;17.51;100.00;100849.47;5067596;28;20041;-61
2023/09/04 05:12:00;;;;;;;0.20;0.20;;;;;;;17.52;100.00;100845.84;5086748;28;20027;-61
2023/09/04 05:14:25;;;;;;;0.20;0.20;;;;;;;17.52;100.00;100845.84;5086680;28;20111;-61
2023/09/04 05:16:51;;;;;;;0.20;0.20;;;;;;;17.55;100.00;100840.31;5085823;28;20403;-61
2023/09/04 05:19:16;;;;;;;0.30;0.30;;;;;;;17.56;100.00;100839.38;5086230;28;20308;-61
2023/09/04 05:21:42;;;;;;;0.28;0.28;;;;;;;17.61;100.00;100842.72;5085308;28;20099;-61
2023/09/04 05:24:07;;;;;;;0.28;0.28;;;;;;;17.64;100.00;100844.41;5089077;28;20024;-61
2023/09/04 05:26:32;;;;;;;0.20;0.20;;;;;;;17.67;100.00;100837.06;5089443;28;20085;-61
2023/09/04 05:28:58;;;;;;;0.20;0.20;;;;;;;17.73;100.00;100839.44;5088963;28;20043;-60
2023/09/04 05:31:23;;;;;;;0.20;0.20;;;;;;;17.74;100.00;100837.63;5085128;28;20034;-61
2023/09/04 05:33:49;;;;;;;0.20;0.20;;;;;;;17.79;100.00;100839.13;5087007;28;20024;-61
2023/09/04 05:36:14;;;;;;;0.20;0.20;;;;;;;17.82;100.00;100833.63;5076107;28;20028;-61
2023/09/04 05:38:40;;;;;;;0.17;0.17;;;;;;;17.86;100.00;100832.50;5086468;28;20735;-61
2023/09/04 05:41:05;;;;;;;0.20;0.20;;;;;;;17.91;100.00;100843.91;5086565;28;20032;-61
2023/09/04 05:43:31;;;;;;;0.20;0.20;;;;;;;17.95;100.00;100837.44;5088159;28;20028;-61
2023/09/04 05:45:57;;;;;;;0.20;0.20;;;;;;;17.97;100.00;100837.38;5087436;28;20025;-61
2023/09/04 05:48:22;;;;;;;0.20;0.20;;;;;;;17.99;100.00;100832.78;5088929;28;20016;-60
2023/09/04 05:50:48;;;;;;;0.20;0.20;;;;;;;18.02;100.00;100830.78;5088685;28;20027;-60
2023/09/04 05:53:13;;;;;;;0.20;0.20;;;;;;;18.10;100.00;100828.56;5082469;28;20457;-61
2023/09/04 05:55:40;;;;;;;0.20;0.20;;;;;;;18.15;100.00;100831.91;5082670;28;20082;-61
2023/09/04 05:58:06;;;;;;;0.20;0.20;;;;;;;18.21;100.00;100831.63;5075697;28;20055;-60
2023/09/04 06:00:31;;;;;;;0.20;0.20;;;;;;;18.27;100.00;100831.28;5070666;28;20090;-60
2023/09/04 06:02:59;;;;;;;0.20;0.20;;;;;;;18.34;100.00;100838.13;5080410;28;20016;-61
2023/09/04 06:05:25;;;;;;;0.20;0.20;;;;;;;18.49;100.00;100841.88;5084993;28;20031;-61
2023/09/04 06:07:50;;;;;;;0.20;0.20;;;;;;;18.62;100.00;100834.88;5084604;28;20419;-60
2023/09/04 06:10:15;;;;;;;0.20;0.20;;;;;;;18.72;100.00;100844.25;5084572;28;20028;-61
2023/09/04 06:12:41;;;;;;;0.20;0.20;;;;;;;18.76;100.00;100839.56;5079369;28;20279;-60
2023/09/04 06:15:07;;;;;;;0.20;0.20;;;;;;;18.93;100.00;100847.63;5064130;28;20025;-61
2023/09/04 06:17:32;;;;;;;0.20;0.20;;;;;;;19.11;100.00;100846.66;5083710;28;20020;-61
2023/09/04 06:19:57;;;;;;;0.20;0.20;;;;;;;19.23;100.00;100845.94;5085022;28;20617;-61
2023/09/04 06:22:23;;;;;;;0.20;0.20;;;;;;;19.39;100.00;100852.28;5085526;28;20039;-61
2023/09/04 06:24:49;;;;;;;0.20;0.20;;;;;;;19.65;100.00;100849.84;5086623;28;20384;-61
2023/09/04 06:27:14;;;;;;;0.20;0.20;;;;;;;20.07;100.00;100857.34;5085672;28;20027;-62
2023/09/04 06:29:39;;;;;;;0.10;0.10;;;;;;;20.38;100.00;100856.44;5083095;28;20031;-61
2023/09/04 06:32:05;;;;;;;0.20;0.20;;;;;;;20.49;99.12;100864.78;5070404;28;20488;-61
2023/09/04 06:34:30;;;;;;;0.10;0.10;;;;;;;20.57;97.27;100866.09;5072192;28;20025;-60
2023/09/04 06:36:56;;;;;;;0.10;0.10;;;;;;;20.91;98.20;100860.34;5067986;28;20085;-60
2023/09/04 06:39:21;;;;;;;0.15;0.15;;;;;;;21.59;95.32;100863.28;5072773;28;20032;-61
2023/09/04 06:41:47;;;;;;;0.20;0.20;;;;;;;22.40;89.63;100871.41;5068491;28;20156;-61
2023/09/04 06:44:12;;;;;;;0.10;0.10;;;;;;;23.21;84.83;100870.28;5075254;28;20470;-61
2023/09/04 06:46:38;;;;;;;0.10;0.10;;;;;;;23.32;79.58;100862.25;5081239;28;20491;-61
2023/09/04 06:49:04;;;;;;;0.10;0.10;;;;;;;23.65;79.27;100861.66;5086014;28;20035;-61
2023/09/04 06:51:29;;;;;;;0.10;0.10;;;;;;;23.98;76.28;100868.22;5084530;28;20024;-61
2023/09/04 06:53:55;;;;;;;0.10;0.10;;;;;;;23.74;75.82;100866.44;5081764;28;20088;-61
2023/09/04 06:56:20;;;;;;;0.10;0.10;;;;;;;23.73;76.27;100870.09;5073091;28;20040;-61
2023/09/04 06:58:46;;;;;;;0.20;0.20;;;;;;;23.70;77.04;100863.06;5068171;28;20077;-61
2023/09/04 07:01:11;;;;;;;0.10;0.10;;;;;;;24.25;76.31;100873.47;5067559;28;20459;-60
2023/09/04 07:03:36;;;;;;;0.10;0.10;;;;;;;24.38;72.25;100871.56;5085786;28;20016;-60
2023/09/04 07:06:02;;;;;;;0.10;0.10;;;;;;;24.63;72.46;100885.00;5075755;28;20025;-61
2023/09/04 07:08:30;;;;;;;0.10;0.10;;;;;;;24.84;71.65;100888.84;5071224;28;20656;-60
2023/09/04 07:10:55;;;;;;;0.17;0.17;;;;;;;25.17;70.54;100883.44;5075970;28;20028;-60
2023/09/04 07:13:21;;;;;;;0.10;0.10;;;;;;;25.76;68.69;100886.88;5070766;28;20464;-61
2023/09/04 07:15:46;;;;;;;0.10;0.10;;;;;;;26.46;67.00;100882.75;5075724;28;20024;-61
2023/09/04 07:18:12;;;;;;;0.10;0.10;;;;;;;26.91;61.45;100881.59;5080535;28;20480;-61
2023/09/04 07:20:37;;;;;;;0.10;0.10;;;;;;;27.45;60.68;100884.13;5067247;28;20061;-61
2023/09/04 07:23:03;;;;;;;0.10;0.10;;;;;;;27.85;58.63;100879.56;5071192;28;20025;-61
2023/09/04 07:25:29;;;;;;;0.10;0.10;;;;;;;28.17;56.89;100882.97;5071034;28;20182;-61
2023/09/04 07:27:55;;;;;;;0.10;0.10;;;;;;;28.40;56.42;100884.44;5085380;28;20130;-61
2023/09/04 07:30:21;;;;;;;0.10;0.10;;;;;;;28.55;55.13;100886.81;5080200;28;20032;-61
2023/09/04 07:32:47;;;;;;;0.10;0.10;;;;;;;28.41;55.16;100880.72;5075390;28;20082;-61
2023/09/04 07:35:12;;;;;;;0.10;0.10;;;;;;;28.60;55.84;100873.56;5086418;28;20111;-60
2023/09/04 07:37:37;;;;;;;0.10;0.10;;;;;;;28.61;55.34;100875.28;5087465;28;20020;-61
2023/09/04 07:40:06;;;;;;;0.10;0.10;;;;;;;28.98;54.29;100881.75;5087089;28;20032;-60
2023/09/04 07:42:32;;;;;;;0.10;0.10;;;;;;;28.97;55.63;100878.16;5086902;28;20028;-60
2023/09/04 07:44:57;;;;;;;0.00;0.00;;;;;;;29.04;54.63;100876.56;5087466;28;20020;-60
2023/09/04 07:47:23;;;;;;;0.10;0.10;;;;;;;29.07;53.14;100883.59;5087370;28;20555;-61
2023/09/04 07:49:50;;;;;;;0.03;0.03;;;;;;;29.07;54.14;100872.66;5086761;28;20051;-60
2023/09/04 07:52:15;;;;;;;0.00;0.00;;;;;;;29.11;53.59;100876.88;5085877;28;20024;-61
2023/09/04 07:54:41;;;;;;;0.03;0.03;;;;;;;28.89;55.23;100879.88;5085440;28;20024;-60
2023/09/04 07:57:07;;;;;;;0.00;0.00;;;;;;;28.94;54.41;100866.63;5084396;28;20316;-60
2023/09/04 07:59:33;;;;;;;0.08;0.08;;;;;;;29.33;53.25;100868.28;5088051;28;20035;-61
2023/09/04 08:01:59;;;;;;;0.00;0.00;;;;;;;29.40;50.91;100858.47;5083541;28;20028;-61
2023/09/04 08:04:24;;;;;;;0.10;0.10;;;;;;;29.40;52.09;100864.81;5067336;28;20560;-61
2023/09/04 08:06:50;;;;;;;0.00;0.00;;;;;;;29.61;51.98;100861.84;5067906;28;20028;-61
2023/09/04 08:09:15;;;;;;;0.10;0.10;;;;;;;29.71;52.88;100857.22;5068486;28;20105;-60
2023/09/04 08:11:41;;;;;;;0.00;0.00;;;;;;;29.96;51.30;100862.00;5088068;28;20028;-61
2023/09/04 08:14:06;;;;;;;0.00;0.00;;;;;;;30.30;49.37;100860.34;5090517;28;20032;-60
2023/09/04 08:16:32;;;;;;;0.00;0.00;;;;;;;30.51;49.16;100858.16;5089342;28;20118;-60
2023/09/04 08:18:57;;;;;;;0.00;0.00;;;;;;;30.81;49.09;100859.66;5089367;28;20024;-61
2023/09/04 08:21:23;;;;;;;0.00;0.00;;;;;;;31.04;49.57;100862.78;5087061;28;20026;-60
2023/09/04 08:23:48;;;;;;;0.00;0.00;;;;;;;31.20;46.87;100860.16;5069071;28;20031;-60
2023/09/04 08:26:14;;;;;;;0.00;0.00;;;;;;;31.35;48.53;100864.06;5083936;28;20028;-60
2023/09/04 08:28:41;;;;;;;0.00;0.00;;;;;;;31.67;48.59;100861.50;5088853;28;20077;-60
2023/09/04 08:31:07;;;;;;;0.00;0.00;;;;;;;31.44;45.69;100865.84;5069300;28;20035;-61
2023/09/04 08:33:33;;;;;;;0.00;0.00;;;;;;;31.62;48.02;100861.13;5086018;28;20028;-60
2023/09/04 08:35:59;;;;;;;0.00;0.00;;;;;;;31.95;46.35;100857.53;5087746;28;20019;-61
2023/09/04 08:38:24;;;;;;;0.00;0.00;;;;;;;31.95;45.28;100846.50;5088725;28;20019;-61
2023/09/04 08:40:50;;;;;;;0.00;0.00;;;;;;;31.93;45.26;100852.19;5088463;28;20032;-61
2023/09/04 08:43:19;;;;;;;0.00;0.00;;;;;;;31.98;47.55;100857.19;5086015;28;20024;-60
2023/09/04 08:45:44;;;;;;;0.00;0.00;;;;;;;31.77;47.22;100853.97;5074779;28;20039;-61
2023/09/04 08:48:13;;;;;;;0.00;0.00;;;;;;;32.01;46.55;100846.72;5091961;28;20020;-61
2023/09/04 08:50:38;;;;;;;0.00;0.00;;;;;;;32.22;45.20;100842.66;5074202;28;20064;-60
2023/09/04 08:53:04;;;;;;;0.00;0.00;;;;;;;32.43;45.10;100848.56;5086495;28;20039;-60
2023/09/04 08:55:33;;;;;;;0.00;0.00;;;;;;;32.42;46.59;100849.59;5083048;28;20032;-61
2023/09/04 08:57:59;;;;;;;0.00;0.00;;;;;;;32.43;45.08;100849.44;5086150;28;20036;-61
2023/09/04 09:00:25;;;;;;;0.00;0.00;;;;;;;32.55;46.19;100837.06;5087484;28;20456;-61
2023/09/04 09:02:51;;;;;;;0.00;0.00;;;;;;;32.82;44.53;100836.72;5084960;28;20016;-61
2023/09/04 09:05:17;;;;;;;0.00;0.00;;;;;;;33.15;44.59;100838.44;5088840;28;20028;-61
2023/09/04 09:07:46;;;;;;;0.00;0.00;;;;;;;33.48;43.86;100833.75;5089509;28;20032;-60
2023/09/04 09:10:18;;;;;;;0.00;0.00;;;;;;;33.36;42.78;100841.50;5069117;28;20044;-60
2023/09/04 09:12:43;;;;;;;0.00;0.00;;;;;;;33.43;44.27;100829.81;5068473;28;20051;-61
2023/09/04 09:15:09;;;;;;;0.00;0.00;;;;;;;33.67;43.30;100843.53;5068817;28;20024;-60
2023/09/04 09:17:34;;;;;;;0.00;0.00;;;;;;;33.82;43.76;100828.81;5067659;28;20020;-60
2023/09/04 09:20:00;;;;;;;0.00;0.00;;;;;;;33.29;43.06;100834.13;5066235;28;20086;-60
2023/09/04 09:22:25;;;;;;;0.00;0.00;;;;;;;33.54;44.56;100832.19;5066494;28;20016;-60
2023/09/04 09:24:50;;;;;;;0.00;0.00;;;;;;;33.64;42.56;100827.31;5067299;28;20029;-60
2023/09/04 09:27:21;;;;;;;0.00;0.00;;;;;;;33.39;42.51;100819.06;5064270;28;20036;-60
2023/09/04 09:29:48;;;;;;;0.00;0.00;;;;;;;33.29;43.01;100823.94;5068668;28;20131;-60
2023/09/04 09:32:18;;;;;;;0.00;0.00;;;;;;;33.31;43.17;100815.50;5069033;28;20440;-60
2023/09/04 09:34:54;;;;;;;0.00;0.00;;;;;;;33.14;43.22;100820.19;5060847;28;20491;-60
2023/09/04 09:37:21;;;;;;;0.00;0.00;;;;;;;33.56;44.42;100808.88;5051473;28;20021;-60
2023/09/04 09:39:47;;;;;;;0.00;0.00;;;;;;;33.90;43.57;100803.03;5049474;28;20079;-60
2023/09/04 09:42:13;;;;;;;0.00;0.00;;;;;;;34.31;42.35;100812.84;5065168;28;20506;-61
2023/09/04 09:44:39;;;;;;;0.00;0.00;;;;;;;34.45;43.15;100807.41;5067441;28;20240;-61
2023/09/04 09:47:10;;;;;;;0.00;0.00;;;;;;;34.71;42.47;100806.19;5058577;28;20029;-61
2023/09/04 09:49:36;;;;;;;0.00;0.00;;;;;;;34.77;41.45;100806.28;5059148;28;20405;-60
2023/09/04 09:52:05;;;;;;;0.00;0.00;;;;;;;34.53;40.22;100796.28;5064318;28;20112;-61
2023/09/04 09:54:44;;;;;;;0.00;0.00;;;;;;;34.58;41.45;100791.06;5063311;28;20020;-61
2023/09/04 09:57:17;;;;;;;0.00;0.00;;;;;;;34.61;39.88;100784.31;5061338;28;20024;-61
2023/09/04 09:59:47;;;;;;;;;;;;;;;34.69;40.03;100781.47;5062351;28;20028;-60
2023/09/04 10:02:19;;;;;;;0.00;0.00;;;;;;;34.79;40.97;100775.69;5065404;28;19950;-60
2023/09/04 10:04:45;;;;;;;0.00;0.00;;;;;;;34.50;40.24;100770.91;5052390;28;20108;-60
2023/09/04 10:07:15;;;;;;;0.00;0.00;;;;;;;34.47;39.64;100769.41;5048149;28;20056;-60
2023/09/04 10:09:48;;;;;;;0.00;0.00;;;;;;;34.61;41.40;100762.22;5072482;28;20052;-60
2023/09/04 10:12:52;;;;;;;0.00;0.00;;;;;;;34.83;41.73;100758.53;5067266;28;20209;-61
2023/09/04 10:15:28;;;;;;;0.00;0.00;;;;;;;35.06;39.92;100756.59;5074105;28;20024;-60
2023/09/04 10:18:10;;;;;;;0.00;0.00;;;;;;;35.43;39.72;100753.78;5066712;28;20114;-60
2023/09/04 10:20:36;;;;;;;0.00;0.00;;;;;;;35.74;38.93;100756.31;5069640;28;20097;-60
2023/09/04 10:23:12;;;;;;;0.00;0.00;;;;;;;35.60;37.63;100744.19;5086824;28;20139;-61
2023/09/04 10:25:51;;;;;;;0.00;0.00;;;;;;;35.73;39.72;100746.28;5087028;28;20027;-60
2023/09/04 10:28:47;;;;;;;0.00;0.00;;;;;;;35.67;36.48;100745.16;5080976;28;20559;-61
2023/09/04 10:31:14;;;;;;;0.00;0.00;;;;;;;35.60;36.63;100744.19;5066992;28;20079;-60
2023/09/04 10:33:40;;;;;;;0.00;0.00;;;;;;;35.57;37.38;100732.66;5083005;28;20047;-60
2023/09/04 10:36:07;;;;;;;0.00;0.00;;;;;;;35.72;36.68;100734.34;5084052;28;20086;-61
2023/09/04 10:38:33;;;;;;;0.00;0.00;;;;;;;35.94;35.23;100734.41;5075515;28;20086;-60
2023/09/04 10:41:00;;;;;;;0.00;0.00;;;;;;;36.18;35.54;100726.56;5085824;28;20035;-60
2023/09/04 10:43:44;;;;;;;0.00;0.00;;;;;;;36.08;36.75;100722.44;5069650;28;20547;-61
2023/09/04 10:46:13;;;;;;;0.00;0.00;;;;;;;36.22;34.89;100722.38;5076549;28;20043;-60
2023/09/04 10:48:43;;;;;;;0.00;0.00;;;;;;;36.30;35.87;100708.38;5068377;28;20519;-60
2023/09/04 10:51:30;;;;;;;0.00;0.00;;;;;;;36.84;34.21;100719.75;5077291;28;20430;-60
2023/09/04 10:54:21;;;;;;;0.00;0.00;;;;;;;36.95;30.58;100708.13;5078469;28;20423;-60
2023/09/04 10:57:05;;;;;;;0.00;0.00;;;;;;;36.42;28.47;100712.38;5060179;28;20040;-60
2023/09/04 10:59:58;;;;;;;0.00;0.00;;;;;;;36.48;28.83;100707.91;5068987;28;20597;-60
2023/09/04 11:02:26;;;;;;;0.00;0.00;;;;;;;36.72;29.53;100705.56;5071742;28;20035;-60
2023/09/04 11:04:53;;;;;;;0.00;0.00;;;;;;;36.93;28.53;100704.69;5075010;28;20031;-60
2023/09/04 11:07:21;;;;;;;0.00;0.00;;;;;;;36.95;30.27;100708.13;5068288;28;20582;-60
2023/09/04 11:10:01;;;;;;;0.00;0.00;;;;;;;37.30;30.39;100709.00;5085485;28;20252;-59
2023/09/04 11:12:27;;;;;;;0.00;0.00;;;;;;;37.66;29.41;100695.72;5079119;28;20527;-60
2023/09/04 11:14:55;;;;;;;0.00;0.00;;;;;;;37.81;30.81;100700.06;5069939;28;20036;-59
2023/09/04 11:17:29;;;;;;;0.00;0.00;;;;;;;38.19;30.51;100701.25;5074847;28;20086;-60
2023/09/04 11:19:55;;;;;;;0.00;0.00;;;;;;;38.34;30.36;100701.03;5086926;28;20028;-60
2023/09/04 11:22:22;;;;;;;0.00;0.00;;;;;;;38.32;29.25;100697.66;5077094;28;20492;-60